createdAt,value
2022-12-15T00:00:34.010Z,25.93
2022-12-15T00:03:26.266Z,25.43
2022-12-15T00:06:12.736Z,25.80
2022-12-15T00:08:59.129Z,22.67
2022-12-15T00:11:44.714Z,23.63
2022-12-15T00:14:30.499Z,24.60
2022-12-15T00:17:16.479Z,25.80
2022-12-15T00:20:03.466Z,25.00
2022-12-15T00:22:49.351Z,24.00
2022-12-15T00:25:35.896Z,22.33
2022-12-15T00:28:22.121Z,22.87
2022-12-15T00:31:08.167Z,21.43
2022-12-15T00:33:54.267Z,21.20
2022-12-15T00:36:41.328Z,20.17
2022-12-15T00:39:10.866Z,20.57
2022-12-15T00:41:39.233Z,21.93
2022-12-15T00:44:09.053Z,21.67
2022-12-15T00:46:54.911Z,19.50
2022-12-15T00:49:41.651Z,19.53
2022-12-15T00:52:30.491Z,19.97
2022-12-15T00:55:16.429Z,19.80
2022-12-15T00:58:02.728Z,20.73
2022-12-15T01:00:49.666Z,20.87
2022-12-15T01:03:38.864Z,21.00
2022-12-15T01:06:27.215Z,18.97
2022-12-15T01:09:15.625Z,19.80
2022-12-15T01:12:03.158Z,20.23
2022-12-15T01:14:50.591Z,20.60
2022-12-15T01:17:37.124Z,19.40
2022-12-15T01:20:18.406Z,19.80
2022-12-15T01:22:48.260Z,20.43
2022-12-15T01:25:20.848Z,20.83
2022-12-15T01:27:49.252Z,19.60
2022-12-15T01:30:21.726Z,19.97
2022-12-15T01:32:50.369Z,19.63
2022-12-15T01:35:18.936Z,20.87
2022-12-15T01:37:50.283Z,21.10
2022-12-15T01:40:39.533Z,20.67
2022-12-15T01:43:14.903Z,20.70
2022-12-15T01:46:03.400Z,19.17
2022-12-15T01:48:48.212Z,18.90
2022-12-15T01:51:27.079Z,19.40
2022-12-15T01:54:02.469Z,19.60
2022-12-15T01:56:38.257Z,20.57
2022-12-15T01:59:10.470Z,19.80
2022-12-15T02:01:39.304Z,20.77
2022-12-15T02:04:12.248Z,20.23
2022-12-15T02:06:40.714Z,20.17
2022-12-15T02:09:09.952Z,18.87
2022-12-15T02:11:56.298Z,19.80
2022-12-15T02:14:44.744Z,19.83
2022-12-15T02:17:29.435Z,19.20
2022-12-15T02:20:41.766Z,18.77
2022-12-15T02:24:03.918Z,16.93
2022-12-15T02:27:42.762Z,18.47
2022-12-15T02:30:23.966Z,17.50
2022-12-15T02:33:07.953Z,17.53
2022-12-15T02:35:55.167Z,17.93
2022-12-15T02:38:32.491Z,17.63
2022-12-15T02:41:02.483Z,18.27
2022-12-15T02:43:37.131Z,18.37
2022-12-15T02:46:19.770Z,18.47
2022-12-15T02:49:01.403Z,17.13
2022-12-15T02:51:46.539Z,18.47
2022-12-15T02:54:53.553Z,18.10
2022-12-15T02:57:44.033Z,18.40
2022-12-15T03:00:13.826Z,18.50
2022-12-15T03:02:48.906Z,19.33
2022-12-15T03:05:19.484Z,19.13
2022-12-15T03:07:51.464Z,18.77
2022-12-15T03:10:21.553Z,18.90
2022-12-15T03:12:50.671Z,18.80
2022-12-15T03:15:20.030Z,19.90
2022-12-15T03:17:49.661Z,19.67
2022-12-15T03:20:17.962Z,19.13
2022-12-15T03:22:46.225Z,20.33
2022-12-15T03:25:14.917Z,20.37
2022-12-15T03:27:44.316Z,19.33
2022-12-15T03:30:14.115Z,20.03
2022-12-15T03:32:42.941Z,20.20
2022-12-15T03:35:13.515Z,18.53
2022-12-15T03:37:42.875Z,18.47
2022-12-15T03:40:13.936Z,19.10
2022-12-15T03:42:50.816Z,19.20
2022-12-15T03:45:21.246Z,19.67
2022-12-15T03:47:50.511Z,19.43
2022-12-15T03:50:24.279Z,20.90
2022-12-15T03:52:54.231Z,19.00
2022-12-15T03:55:23.544Z,18.77
2022-12-15T03:57:52.756Z,18.97
2022-12-15T04:00:24.887Z,18.63
2022-12-15T04:02:54.260Z,18.87
2022-12-15T04:05:27.717Z,19.00
2022-12-15T04:07:58.852Z,19.50
2022-12-15T04:10:34.386Z,18.20
2022-12-15T04:13:05.835Z,20.13
2022-12-15T04:15:35.683Z,18.70
2022-12-15T04:18:06.776Z,19.90
2022-12-15T04:20:35.742Z,19.50
2022-12-15T04:23:04.060Z,20.60
2022-12-15T04:25:50.056Z,19.73
2022-12-15T04:28:36.303Z,19.03
2022-12-15T04:31:27.841Z,19.27
2022-12-15T04:34:17.977Z,19.73
2022-12-15T04:37:09.928Z,19.93
2022-12-15T04:39:58.894Z,20.17
2022-12-15T04:42:45.291Z,19.97
2022-12-15T04:45:33.051Z,19.10
2022-12-15T04:48:19.493Z,18.77
2022-12-15T04:51:05.380Z,18.83
2022-12-15T04:53:52.401Z,19.43
2022-12-15T04:56:38.401Z,20.20
2022-12-15T04:59:24.261Z,19.63
2022-12-15T05:02:10.561Z,19.83
2022-12-15T05:04:56.976Z,19.30
2022-12-15T05:07:44.376Z,19.87
2022-12-15T05:10:32.517Z,19.53
2022-12-15T05:13:23.776Z,20.97
2022-12-15T05:16:09.865Z,19.57
2022-12-15T05:18:56.398Z,19.93
2022-12-15T05:21:42.657Z,20.77
2022-12-15T05:24:28.709Z,19.80
2022-12-15T05:27:15.869Z,20.63
2022-12-15T05:30:02.478Z,21.03
2022-12-15T05:32:33.942Z,19.73
2022-12-15T05:35:02.562Z,18.07
2022-12-15T05:37:30.891Z,20.53
2022-12-15T05:39:59.206Z,21.30
2022-12-15T05:42:28.933Z,21.17
2022-12-15T05:44:57.556Z,20.57
2022-12-15T05:47:26.386Z,20.57
2022-12-15T05:49:54.973Z,20.27
2022-12-15T05:52:23.642Z,20.40
2022-12-15T05:54:51.901Z,20.93
2022-12-15T05:57:24.350Z,20.70
2022-12-15T05:59:54.325Z,19.67
2022-12-15T06:02:23.006Z,20.37
2022-12-15T06:04:51.753Z,20.63
2022-12-15T06:07:22.423Z,20.73
2022-12-15T06:09:51.406Z,19.77
2022-12-15T06:12:20.039Z,20.93
2022-12-15T06:14:49.974Z,20.87
2022-12-15T06:17:19.737Z,21.57
2022-12-15T06:19:48.103Z,21.23
2022-12-15T06:22:16.577Z,21.03
2022-12-15T06:24:45.180Z,21.47
2022-12-15T06:27:13.794Z,21.73
2022-12-15T06:29:42.184Z,20.77
2022-12-15T06:32:10.828Z,22.33
2022-12-15T06:34:41.398Z,21.53
2022-12-15T06:37:09.985Z,21.57
2022-12-15T06:39:38.679Z,20.90
2022-12-15T06:42:07.398Z,20.60
2022-12-15T06:44:36.793Z,21.33
2022-12-15T06:47:05.616Z,22.30
2022-12-15T06:49:34.374Z,21.67
2022-12-15T06:52:04.068Z,23.80
2022-12-15T06:54:32.713Z,22.77
2022-12-15T06:57:01.050Z,22.00
2022-12-15T06:59:29.696Z,22.23
2022-12-15T07:01:58.671Z,21.10
2022-12-15T07:04:27.719Z,23.23
2022-12-15T07:06:57.872Z,21.53
2022-12-15T07:09:28.399Z,22.03
2022-12-15T07:11:56.677Z,22.80
2022-12-15T07:14:25.932Z,22.40
2022-12-15T07:16:54.619Z,20.93
2022-12-15T07:19:23.182Z,22.37
2022-12-15T07:21:52.894Z,21.37
2022-12-15T07:24:21.233Z,22.70
2022-12-15T07:26:51.173Z,22.17
2022-12-15T07:29:23.511Z,21.37
2022-12-15T07:31:53.373Z,22.50
2022-12-15T07:34:22.664Z,21.73
2022-12-15T07:36:52.607Z,21.53
2022-12-15T07:39:21.544Z,22.13
2022-12-15T07:41:51.249Z,20.20
2022-12-15T07:44:19.866Z,21.77
2022-12-15T07:46:49.359Z,21.50
2022-12-15T07:49:18.086Z,22.13
2022-12-15T07:51:46.747Z,21.63
2022-12-15T07:54:16.286Z,21.53
2022-12-15T07:56:45.029Z,21.33
2022-12-15T07:59:20.721Z,21.60
2022-12-15T08:01:49.762Z,21.83
2022-12-15T08:04:18.856Z,21.60
2022-12-15T08:06:47.482Z,22.40
2022-12-15T08:09:16.116Z,22.60
2022-12-15T08:11:44.408Z,20.97
2022-12-15T08:14:17.377Z,21.50
2022-12-15T08:16:48.005Z,20.97
2022-12-15T08:19:17.960Z,22.13
2022-12-15T08:21:47.967Z,21.43
2022-12-15T08:24:17.177Z,22.60
2022-12-15T08:26:49.975Z,21.50
2022-12-15T08:32:09.951Z,20.87
2022-12-15T08:34:39.352Z,20.07
2022-12-15T08:37:07.941Z,21.43
2022-12-15T08:39:36.553Z,22.00
2022-12-15T08:42:05.404Z,20.23
2022-12-15T08:44:33.990Z,20.07
2022-12-15T08:47:02.621Z,20.90
2022-12-15T08:49:32.315Z,21.03
2022-12-15T08:52:00.901Z,19.90
2022-12-15T08:54:29.527Z,19.47
2022-12-15T08:56:57.769Z,22.33
2022-12-15T08:59:26.311Z,20.60
2022-12-15T09:01:55.032Z,21.07
2022-12-15T09:04:24.044Z,21.27
2022-12-15T09:06:53.859Z,21.17
2022-12-15T09:09:22.560Z,20.50
2022-12-15T09:11:51.227Z,20.67
2022-12-15T09:14:27.087Z,21.20
2022-12-15T09:16:57.751Z,20.53
2022-12-15T09:19:26.585Z,20.80
2022-12-15T09:21:56.284Z,20.93
2022-12-15T09:24:34.349Z,20.90
2022-12-15T09:27:04.649Z,20.53
2022-12-15T09:29:34.060Z,21.10
2022-12-15T09:32:06.559Z,20.13
2022-12-15T09:34:38.118Z,20.63
2022-12-15T09:37:07.822Z,19.97
2022-12-15T09:39:37.511Z,20.37
2022-12-15T09:42:06.220Z,20.57
2022-12-15T09:44:35.205Z,20.83
2022-12-15T09:47:13.924Z,21.10
2022-12-15T09:49:56.615Z,20.83
2022-12-15T09:52:31.250Z,21.33
2022-12-15T09:55:01.801Z,20.37
2022-12-15T09:57:45.438Z,21.63
2022-12-15T10:00:22.453Z,21.20
2022-12-15T10:03:22.993Z,20.50
2022-12-15T10:06:20.028Z,20.63
2022-12-15T10:08:57.157Z,19.50
2022-12-15T10:11:55.766Z,19.13
2022-12-15T10:14:34.172Z,19.57
2022-12-15T10:17:21.390Z,20.00
2022-12-15T10:20:03.914Z,19.67
2022-12-15T10:22:37.715Z,20.33
2022-12-15T10:25:25.341Z,19.37
2022-12-15T10:28:25.507Z,19.10
2022-12-15T10:31:01.263Z,19.70
2022-12-15T10:33:36.393Z,19.67
2022-12-15T10:36:12.452Z,19.70
2022-12-15T10:38:46.214Z,20.20
2022-12-15T10:41:23.593Z,20.40
2022-12-15T10:46:47.003Z,21.57
2022-12-15T10:49:26.559Z,20.73
2022-12-15T10:52:00.184Z,20.47
2022-12-15T10:54:35.792Z,21.07
2022-12-15T10:57:21.023Z,21.80
2022-12-15T10:59:50.375Z,20.23
2022-12-15T11:02:34.766Z,22.10
2022-12-15T11:05:06.652Z,21.23
2022-12-15T11:07:39.771Z,20.43
2022-12-15T11:10:21.201Z,21.03
2022-12-15T11:13:10.568Z,21.07
2022-12-15T11:15:43.265Z,19.83
2022-12-15T11:18:24.422Z,20.93
2022-12-15T11:21:01.727Z,20.23
2022-12-15T11:23:50.278Z,19.50
2022-12-15T11:26:33.142Z,20.23
2022-12-15T11:29:11.196Z,18.67
2022-12-15T11:31:44.443Z,21.17
2022-12-15T11:34:16.029Z,19.23
2022-12-15T11:37:02.566Z,19.37
2022-12-15T11:39:54.768Z,19.43
2022-12-15T11:42:35.994Z,18.80
2022-12-15T11:45:19.812Z,19.33
2022-12-15T11:47:53.434Z,19.73
2022-12-15T11:50:31.832Z,19.73
2022-12-15T11:53:19.735Z,19.10
2022-12-15T11:55:58.849Z,19.80
2022-12-15T11:58:51.809Z,19.80
2022-12-15T12:01:57.052Z,19.77
2022-12-15T12:04:35.512Z,20.87
2022-12-15T12:07:16.830Z,21.70
2022-12-15T12:10:04.223Z,20.27
2022-12-15T12:12:44.912Z,19.90
2022-12-15T12:15:31.141Z,20.07
2022-12-15T12:18:12.761Z,20.30
2022-12-15T12:20:50.333Z,19.87
2022-12-15T12:23:28.742Z,20.57
2022-12-15T12:26:07.408Z,21.10
2022-12-15T12:28:46.670Z,20.30
2022-12-15T12:31:32.389Z,20.17
2022-12-15T12:34:13.474Z,20.30
2022-12-15T12:36:44.965Z,19.83
2022-12-15T12:39:24.408Z,20.70
2022-12-15T12:42:06.612Z,21.00
2022-12-15T12:44:38.620Z,20.53
2022-12-15T12:47:17.313Z,20.53
2022-12-15T12:49:51.414Z,20.00
2022-12-15T12:52:28.499Z,20.67
2022-12-15T12:55:03.201Z,21.60
2022-12-15T12:57:41.444Z,21.20
2022-12-15T13:00:20.654Z,21.03
2022-12-15T13:03:14.148Z,21.43
2022-12-15T13:05:46.679Z,20.67
2022-12-15T13:12:14.861Z,19.10
2022-12-15T13:14:51.948Z,20.90
2022-12-15T13:17:33.813Z,21.70
2022-12-15T13:20:30.973Z,19.97
2022-12-15T13:23:41.366Z,20.63
2022-12-15T13:26:20.543Z,19.27
2022-12-15T13:28:58.818Z,19.97
2022-12-15T13:31:41.837Z,20.13
2022-12-15T13:34:39.470Z,17.97
2022-12-15T13:37:46.718Z,17.00
2022-12-15T13:40:51.848Z,17.40
2022-12-15T13:43:43.670Z,17.20
2022-12-15T13:46:17.909Z,17.57
2022-12-15T13:48:49.320Z,17.37
2022-12-15T13:51:39.094Z,18.87
2022-12-15T13:54:18.007Z,18.00
2022-12-15T13:56:56.217Z,16.93
2022-12-15T13:59:38.323Z,19.10
2022-12-15T14:02:26.511Z,20.63
2022-12-15T14:05:14.357Z,21.20
2022-12-15T14:07:54.135Z,21.80
2022-12-15T14:10:28.551Z,21.73
2022-12-15T14:13:15.095Z,18.60
2022-12-15T14:15:47.343Z,18.10
2022-12-15T14:18:30.350Z,17.77
2022-12-15T14:20:59.245Z,17.67
2022-12-15T14:23:30.449Z,19.03
2022-12-15T14:26:07.353Z,17.80
2022-12-15T14:28:39.373Z,18.30
2022-12-15T14:31:15.511Z,18.77
2022-12-15T14:33:50.689Z,18.33
2022-12-15T14:36:21.967Z,19.17
2022-12-15T14:38:55.085Z,18.23
2022-12-15T14:41:28.557Z,17.93
2022-12-15T14:44:31.416Z,18.87
2022-12-15T14:46:52.799Z,19.03
2022-12-15T14:49:29.585Z,18.57
2022-12-15T14:52:05.082Z,17.93
2022-12-15T14:54:37.506Z,20.07
2022-12-15T14:57:16.734Z,19.67
2022-12-15T14:59:51.252Z,20.77
2022-12-15T15:02:24.894Z,20.53
2022-12-15T15:03:11.640Z,20.80
2022-12-15T15:03:12.903Z,20.80
2022-12-15T15:05:03.244Z,19.67
2022-12-15T15:07:33.463Z,19.20
2022-12-15T15:10:04.265Z,19.33
2022-12-15T15:12:45.508Z,20.43
2022-12-15T15:15:19.792Z,19.83
2022-12-15T15:17:53.692Z,20.40
2022-12-15T15:20:28.557Z,19.47
2022-12-15T15:23:19.463Z,19.93
2022-12-15T15:25:53.956Z,19.37
2022-12-15T15:28:26.587Z,19.70
2022-12-15T15:31:00.553Z,19.87
2022-12-15T15:33:30.387Z,19.47
2022-12-15T15:36:01.048Z,20.70
2022-12-15T15:38:33.600Z,20.53
2022-12-15T15:41:16.817Z,20.00
2022-12-15T15:43:45.674Z,18.47
2022-12-15T15:46:20.309Z,19.40
2022-12-15T15:48:53.958Z,20.57
2022-12-15T15:51:24.797Z,19.20
2022-12-15T15:53:54.689Z,20.10
2022-12-15T15:56:23.621Z,19.23
2022-12-15T15:58:51.965Z,20.63
2022-12-15T16:01:21.880Z,20.30
2022-12-15T16:03:50.651Z,19.73
2022-12-15T16:06:24.187Z,19.37
2022-12-15T16:08:54.818Z,19.13
2022-12-15T16:11:25.508Z,19.90
2022-12-15T16:13:53.840Z,19.27
2022-12-15T16:16:31.346Z,20.50
2022-12-15T16:19:00.029Z,19.77
2022-12-15T16:21:29.084Z,19.40
2022-12-15T16:23:59.789Z,19.97
2022-12-15T16:26:33.313Z,18.43
2022-12-15T16:29:01.864Z,19.40
2022-12-15T16:31:41.358Z,18.80
2022-12-15T16:34:10.710Z,18.60
2022-12-15T16:36:39.390Z,18.67
2022-12-15T16:39:25.383Z,17.87
2022-12-15T16:41:56.273Z,18.33
2022-12-15T16:44:26.542Z,19.47
2022-12-15T16:46:56.992Z,19.27
2022-12-15T16:49:25.685Z,17.60
2022-12-15T16:51:54.959Z,18.27
2022-12-15T16:54:28.532Z,18.43
2022-12-15T16:57:00.478Z,18.53
2022-12-15T16:59:33.944Z,17.20
2022-12-15T17:02:23.943Z,17.50
2022-12-15T17:04:55.063Z,16.90
2022-12-15T17:07:25.163Z,17.33
2022-12-15T17:09:53.941Z,18.40
2022-12-15T17:12:22.367Z,17.83
2022-12-15T17:14:50.786Z,17.47
2022-12-15T17:17:21.252Z,16.47
2022-12-15T17:20:27.523Z,17.43
2022-12-15T17:22:39.266Z,18.40
2022-12-15T17:25:17.336Z,18.27
2022-12-15T17:27:47.036Z,16.40
2022-12-15T17:30:17.326Z,17.80
2022-12-15T17:32:48.308Z,17.67
2022-12-15T17:35:17.585Z,17.90
2022-12-15T17:37:46.820Z,18.57
2022-12-15T17:40:21.976Z,17.93
2022-12-15T17:42:51.439Z,18.77
2022-12-15T17:45:24.373Z,17.63
2022-12-15T17:47:54.683Z,17.20
2022-12-15T17:50:23.330Z,17.73
2022-12-15T17:52:51.755Z,16.53
2022-12-15T17:55:29.049Z,16.50
2022-12-15T17:58:00.778Z,16.90
2022-12-15T18:00:32.060Z,17.30
2022-12-15T18:03:02.345Z,16.70
2022-12-15T18:05:32.330Z,16.53
2022-12-15T18:08:15.564Z,16.80
2022-12-15T18:10:45.723Z,16.60
2022-12-15T18:13:20.425Z,16.13
2022-12-15T18:15:49.549Z,17.63
2022-12-15T18:18:22.222Z,18.80
2022-12-15T18:20:52.061Z,17.73
2022-12-15T18:23:26.323Z,18.10
2022-12-15T18:25:59.672Z,18.07
2022-12-15T18:28:33.258Z,17.83
2022-12-15T18:31:21.351Z,17.33
2022-12-15T18:33:51.171Z,17.83
2022-12-15T18:36:20.712Z,17.07
2022-12-15T18:38:49.750Z,18.07
2022-12-15T18:41:21.117Z,17.77
2022-12-15T18:43:58.606Z,19.00
2022-12-15T18:46:28.236Z,18.40
2022-12-15T18:49:00.288Z,19.47
2022-12-15T18:51:30.768Z,17.93
2022-12-15T18:53:59.141Z,18.40
2022-12-15T18:56:27.733Z,18.27
2022-12-15T18:58:56.263Z,19.90
2022-12-15T19:01:25.018Z,19.47
2022-12-15T19:03:53.972Z,18.60
2022-12-15T19:06:34.809Z,18.40
2022-12-15T19:09:03.937Z,18.33
2022-12-15T19:11:33.089Z,17.37
2022-12-15T19:14:04.102Z,18.80
2022-12-15T19:16:52.937Z,18.37
2022-12-15T19:19:39.287Z,16.90
2022-12-15T19:22:28.029Z,18.70
2022-12-15T19:24:57.088Z,17.87
2022-12-15T19:27:27.466Z,18.87
2022-12-15T19:29:56.579Z,18.30
2022-12-15T19:32:26.768Z,18.87
2022-12-15T19:34:55.553Z,19.83
2022-12-15T19:37:28.539Z,18.90
2022-12-15T19:39:58.956Z,19.70
2022-12-15T19:42:33.392Z,20.03
2022-12-15T19:45:02.647Z,19.30
2022-12-15T19:47:31.306Z,19.43
2022-12-15T19:49:59.730Z,19.77
2022-12-15T19:52:29.827Z,19.33
2022-12-15T19:54:58.679Z,19.30
2022-12-15T19:57:27.558Z,19.43
2022-12-15T19:59:56.052Z,21.50
2022-12-15T20:02:24.567Z,19.53
2022-12-15T20:04:53.050Z,19.33
2022-12-15T20:07:30.415Z,19.00
2022-12-15T20:09:59.022Z,19.57
2022-12-15T20:12:27.589Z,19.53
2022-12-15T20:14:56.632Z,20.13
2022-12-15T20:17:25.119Z,19.97
2022-12-15T20:19:53.524Z,19.90
2022-12-15T20:22:21.971Z,18.93
2022-12-15T20:24:51.796Z,19.80
2022-12-15T20:27:21.200Z,19.90
2022-12-15T20:29:49.632Z,19.90
2022-12-15T20:32:21.815Z,19.50
2022-12-15T20:34:50.517Z,19.80
2022-12-15T20:37:24.263Z,20.27
2022-12-15T20:39:57.712Z,19.37
2022-12-15T20:42:26.940Z,20.40
2022-12-15T20:44:55.710Z,20.37
2022-12-15T20:47:27.696Z,20.03
2022-12-15T20:49:56.762Z,19.23
2022-12-15T20:52:28.029Z,20.23
2022-12-15T20:54:58.032Z,20.87
2022-12-15T20:57:26.800Z,20.17
2022-12-15T20:59:55.742Z,19.27
2022-12-15T21:02:25.802Z,19.93
2022-12-15T21:04:55.208Z,19.10
2022-12-15T21:07:23.663Z,20.10
2022-12-15T21:09:52.066Z,19.97
2022-12-15T21:12:26.439Z,20.03
2022-12-15T21:14:55.552Z,19.57
2022-12-15T21:17:27.011Z,20.40
2022-12-15T21:19:55.621Z,19.67
2022-12-15T21:22:27.629Z,19.33
2022-12-15T21:25:00.417Z,19.57
2022-12-15T21:27:30.179Z,19.87
2022-12-15T21:29:58.535Z,20.37
2022-12-15T21:32:26.885Z,19.50
2022-12-15T21:34:55.572Z,20.13
2022-12-15T21:37:29.705Z,20.57
2022-12-15T21:40:00.487Z,19.20
2022-12-15T21:42:37.501Z,19.20
2022-12-15T21:45:13.677Z,19.87
2022-12-15T21:47:59.344Z,19.43
2022-12-15T21:50:28.160Z,19.23
2022-12-15T21:52:57.244Z,20.13
2022-12-15T21:55:28.914Z,19.07
2022-12-15T21:57:59.289Z,19.67
2022-12-15T22:00:28.143Z,19.70
2022-12-15T22:02:57.016Z,20.17
2022-12-15T22:05:30.271Z,20.63
2022-12-15T22:08:02.690Z,19.77
2022-12-15T22:10:31.212Z,19.63
2022-12-15T22:13:01.075Z,18.63
2022-12-15T22:15:30.758Z,19.63
2022-12-15T22:17:59.600Z,18.57
2022-12-15T22:20:28.004Z,18.63
2022-12-15T22:22:56.574Z,18.63
2022-12-15T22:25:26.889Z,19.43
2022-12-15T22:27:55.588Z,18.93
2022-12-15T22:30:27.978Z,17.33
2022-12-15T22:32:56.588Z,17.73
2022-12-15T22:35:27.659Z,18.23
2022-12-15T22:37:56.461Z,17.40
2022-12-15T22:40:26.238Z,16.43
2022-12-15T22:42:58.858Z,17.60
2022-12-15T22:45:29.137Z,17.73
2022-12-15T22:47:57.869Z,17.50
2022-12-15T22:50:27.955Z,17.03
2022-12-15T22:52:56.315Z,16.13
2022-12-15T22:55:25.426Z,15.93
2022-12-15T22:58:00.784Z,16.07
2022-12-15T23:00:30.785Z,16.07
2022-12-15T23:02:59.825Z,15.40
2022-12-15T23:05:28.367Z,16.00
2022-12-15T23:07:57.067Z,15.33
2022-12-15T23:10:43.143Z,16.93
2022-12-15T23:13:11.504Z,16.70
2022-12-15T23:15:58.696Z,16.57
2022-12-15T23:18:27.385Z,16.43
2022-12-15T23:20:56.507Z,16.27
2022-12-15T23:23:25.938Z,16.60
2022-12-15T23:25:54.878Z,17.00
2022-12-15T23:28:23.437Z,16.90
2022-12-15T23:30:54.502Z,17.13
2022-12-15T23:33:24.889Z,17.90
2022-12-15T23:35:54.991Z,16.63
2022-12-15T23:38:23.822Z,16.37
2022-12-15T23:40:54.738Z,19.27
2022-12-15T23:43:24.981Z,18.23
2022-12-15T23:46:00.289Z,18.00
2022-12-15T23:48:32.583Z,16.60
2022-12-15T23:51:06.883Z,17.47
2022-12-15T23:53:35.611Z,18.60
2022-12-15T23:56:11.312Z,18.30
2022-12-15T23:58:41.367Z,18.37
